createdAt,value
2018-06-14T00:00:35.150Z,5.67
2018-06-14T00:03:03.685Z,5.97
2018-06-14T00:05:32.794Z,5.20
2018-06-14T00:08:01.275Z,5.20
2018-06-14T00:10:30.025Z,5.47
2018-06-14T00:12:58.605Z,4.80
2018-06-14T00:15:27.072Z,5.00
2018-06-14T00:17:55.517Z,5.03
2018-06-14T00:20:24.057Z,5.60
2018-06-14T00:22:52.469Z,4.87
2018-06-14T00:25:20.993Z,4.97
2018-06-14T00:27:49.484Z,5.00
2018-06-14T00:30:17.940Z,5.70
2018-06-14T00:32:46.545Z,6.47
2018-06-14T00:35:15.005Z,5.73
2018-06-14T00:37:43.486Z,5.13
2018-06-14T00:40:11.946Z,4.50
2018-06-14T00:42:40.375Z,5.77
2018-06-14T00:45:09.055Z,4.53
2018-06-14T00:47:37.549Z,6.00
2018-06-14T00:50:06.592Z,5.40
2018-06-14T00:52:35.060Z,4.73
2018-06-14T00:55:03.497Z,4.20
2018-06-14T00:57:32.737Z,4.13
2018-06-14T01:00:01.194Z,4.37
2018-06-14T01:02:29.745Z,4.30
2018-06-14T01:04:58.225Z,4.60
2018-06-14T01:07:26.655Z,4.30
2018-06-14T01:09:55.124Z,4.10
2018-06-14T01:12:23.568Z,4.57
2018-06-14T01:14:52.053Z,4.37
2018-06-14T01:17:20.500Z,4.17
2018-06-14T01:19:48.944Z,4.60
2018-06-14T01:22:17.385Z,4.83
2018-06-14T01:24:45.864Z,4.43
2018-06-14T01:27:14.443Z,4.73
2018-06-14T01:29:43.001Z,4.27
2018-06-14T01:32:11.524Z,5.03
2018-06-14T01:34:39.929Z,4.97
2018-06-14T01:37:08.538Z,4.60
2018-06-14T01:39:36.972Z,4.60
2018-06-14T01:42:05.433Z,4.37
2018-06-14T01:44:33.927Z,5.17
2018-06-14T01:47:02.353Z,4.60
2018-06-14T01:49:30.870Z,4.90
2018-06-14T01:51:59.282Z,5.70
2018-06-14T01:54:27.759Z,5.60
2018-06-14T01:56:56.161Z,5.20
2018-06-14T01:59:24.620Z,5.43
2018-06-14T02:01:53.095Z,5.40
2018-06-14T02:04:21.695Z,4.67
2018-06-14T02:06:50.176Z,5.00
2018-06-14T02:09:18.657Z,5.47
2018-06-14T02:11:47.272Z,4.97
2018-06-14T02:14:15.716Z,5.07
2018-06-14T02:16:44.249Z,5.27
2018-06-14T02:19:12.716Z,5.30
2018-06-14T02:21:41.148Z,4.80
2018-06-14T02:24:09.573Z,5.10
2018-06-14T02:26:38.058Z,5.40
2018-06-14T02:29:06.504Z,5.10
2018-06-14T02:31:34.938Z,5.10
2018-06-14T02:34:03.389Z,4.70
2018-06-14T02:36:32.277Z,5.20
2018-06-14T02:39:00.773Z,5.27
2018-06-14T02:41:29.216Z,5.10
2018-06-14T02:43:57.737Z,5.63
2018-06-14T02:46:26.201Z,5.00
2018-06-14T02:48:54.684Z,5.63
2018-06-14T02:51:23.137Z,4.90
2018-06-14T02:53:51.572Z,4.57
2018-06-14T02:56:20.089Z,4.80
2018-06-14T02:58:48.565Z,5.33
2018-06-14T03:01:17.057Z,4.80
2018-06-14T03:03:45.513Z,5.30
2018-06-14T03:06:14.009Z,6.40
2018-06-14T03:08:42.490Z,5.20
2018-06-14T03:11:10.977Z,5.43
2018-06-14T03:13:39.558Z,4.77
2018-06-14T03:16:08.025Z,4.90
2018-06-14T03:18:36.437Z,4.30
2018-06-14T03:21:04.919Z,5.13
2018-06-14T03:23:33.462Z,4.40
2018-06-14T03:26:02.007Z,4.80
2018-06-14T03:28:30.428Z,6.13
2018-06-14T03:31:00.015Z,5.13
2018-06-14T03:33:28.109Z,5.13
2018-06-14T03:35:56.612Z,4.27
2018-06-14T03:38:25.964Z,4.43
2018-06-14T03:40:54.520Z,5.03
2018-06-14T03:43:22.892Z,4.90
2018-06-14T03:45:51.380Z,5.17
2018-06-14T03:48:19.816Z,5.03
2018-06-14T03:50:48.261Z,5.43
2018-06-14T03:53:16.709Z,5.10
2018-06-14T03:55:45.234Z,4.90
2018-06-14T03:58:14.568Z,6.00
2018-06-14T04:00:43.165Z,5.00
2018-06-14T04:03:11.845Z,4.73
2018-06-14T04:05:40.333Z,5.00
2018-06-14T04:08:08.849Z,4.43
2018-06-14T04:10:37.468Z,4.73
2018-06-14T04:13:06.384Z,4.97
2018-06-14T04:15:34.940Z,5.20
2018-06-14T04:18:04.050Z,4.77
2018-06-14T04:20:34.008Z,5.37
2018-06-14T04:23:02.566Z,4.73
2018-06-14T04:25:31.036Z,5.17
2018-06-14T04:27:59.581Z,5.37
2018-06-14T04:30:28.027Z,4.93
2018-06-14T04:32:56.506Z,5.60
2018-06-14T04:35:25.063Z,5.80
2018-06-14T04:37:54.136Z,5.30
2018-06-14T04:40:22.577Z,5.70
2018-06-14T04:42:51.222Z,5.73
2018-06-14T04:45:19.708Z,5.50
2018-06-14T04:47:48.182Z,6.10
2018-06-14T04:50:17.266Z,5.40
2018-06-14T04:52:45.715Z,5.27
2018-06-14T04:55:14.224Z,6.03
2018-06-14T04:57:42.673Z,6.40
2018-06-14T05:00:11.169Z,5.13
2018-06-14T05:02:39.677Z,5.43
2018-06-14T05:05:08.185Z,5.60
2018-06-14T05:07:36.762Z,5.97
2018-06-14T05:10:05.313Z,5.77
2018-06-14T05:12:33.852Z,6.10
2018-06-14T05:15:02.354Z,5.80
2018-06-14T05:17:30.829Z,5.40
2018-06-14T05:19:59.304Z,5.83
2018-06-14T05:22:27.756Z,6.20
2018-06-14T05:24:56.182Z,6.33
2018-06-14T05:27:24.838Z,6.30
2018-06-14T05:29:53.272Z,5.57
2018-06-14T05:32:21.794Z,5.87
2018-06-14T05:34:50.423Z,6.00
2018-06-14T05:37:19.217Z,5.93
2018-06-14T05:39:47.645Z,6.40
2018-06-14T05:42:16.255Z,5.57
2018-06-14T05:44:44.698Z,5.90
2018-06-14T05:47:13.196Z,6.40
2018-06-14T05:49:41.628Z,6.07
2018-06-14T05:52:10.134Z,6.57
2018-06-14T05:54:39.336Z,6.40
2018-06-14T05:57:07.863Z,6.77
2018-06-14T05:59:36.937Z,6.07
2018-06-14T06:02:05.374Z,5.20
2018-06-14T06:04:34.009Z,5.60
2018-06-14T06:07:02.778Z,5.83
2018-06-14T06:09:31.483Z,5.27
2018-06-14T06:12:00.284Z,5.07
2018-06-14T06:14:29.296Z,5.60
2018-06-14T06:16:58.739Z,5.27
2018-06-14T06:19:28.550Z,5.10
2018-06-14T06:21:57.061Z,5.50
2018-06-14T06:24:25.308Z,5.47
2018-06-14T06:26:55.057Z,4.90
2018-06-14T06:29:23.847Z,5.03
2018-06-14T06:31:52.343Z,6.17
2018-06-14T06:34:21.345Z,5.40
2018-06-14T06:36:50.403Z,5.60
2018-06-14T06:39:18.946Z,4.50
2018-06-14T06:41:47.696Z,5.73
2018-06-14T06:44:16.534Z,5.20
2018-06-14T06:46:45.168Z,5.17
2018-06-14T06:49:13.981Z,5.27
2018-06-14T06:51:43.036Z,4.97
2018-06-14T06:54:11.494Z,4.97
2018-06-14T06:56:40.299Z,4.60
2018-06-14T06:59:09.897Z,5.60
2018-06-14T07:01:38.382Z,4.50
2018-06-14T07:04:07.081Z,4.40
2018-06-14T07:06:35.529Z,4.70
2018-06-14T07:09:06.535Z,3.50
2018-06-14T07:11:35.236Z,3.70
2018-06-14T07:14:03.768Z,4.43
2018-06-14T07:16:32.247Z,4.17
2018-06-14T07:19:00.790Z,4.13
2018-06-14T07:21:29.275Z,4.40
2018-06-14T07:23:59.520Z,3.27
2018-06-14T07:26:27.960Z,3.67
2018-06-14T07:28:56.496Z,3.70
2018-06-14T07:31:25.367Z,3.73
2018-06-14T07:33:53.880Z,3.90
2018-06-14T07:36:22.353Z,3.67
2018-06-14T07:38:50.813Z,4.57
2018-06-14T07:41:19.297Z,3.00
2018-06-14T07:43:47.899Z,2.30
2018-06-14T07:46:16.052Z,2.70
2018-06-14T07:48:44.476Z,2.60
2018-06-14T07:51:13.037Z,3.00
2018-06-14T07:53:41.519Z,3.83
2018-06-14T07:56:09.964Z,2.97
2018-06-14T07:58:38.438Z,2.90
2018-06-14T08:01:06.929Z,3.13
2018-06-14T08:03:35.368Z,3.37
2018-06-14T08:06:03.833Z,3.60
2018-06-14T08:08:32.388Z,3.03
2018-06-14T08:11:00.882Z,3.77
2018-06-14T08:13:29.334Z,2.80
2018-06-14T08:15:57.782Z,3.70
2018-06-14T08:18:26.257Z,3.27
2018-06-14T08:20:54.649Z,3.30
2018-06-14T08:23:23.144Z,3.10
2018-06-14T08:25:51.565Z,3.60
2018-06-14T08:28:20.059Z,3.97
2018-06-14T08:30:48.505Z,3.63
2018-06-14T08:33:17.108Z,3.40
2018-06-14T08:35:45.585Z,3.40
2018-06-14T08:38:14.044Z,2.73
2018-06-14T08:40:42.548Z,3.13
2018-06-14T08:43:11.077Z,2.93
2018-06-14T08:45:39.236Z,2.70
2018-06-14T08:48:07.681Z,2.90
2018-06-14T08:50:36.357Z,3.07
2018-06-14T08:53:04.825Z,2.30
2018-06-14T08:55:33.786Z,2.47
2018-06-14T08:58:01.939Z,3.10
2018-06-14T09:00:30.472Z,2.50
2018-06-14T09:02:58.950Z,2.90
2018-06-14T09:05:27.395Z,2.80
2018-06-14T09:07:55.789Z,2.77
2018-06-14T09:10:24.289Z,2.50
2018-06-14T09:12:52.708Z,2.33
2018-06-14T09:15:21.178Z,2.77
2018-06-14T09:17:49.646Z,2.77
2018-06-14T09:20:18.101Z,2.70
2018-06-14T09:22:46.545Z,3.40
2018-06-14T09:25:14.986Z,3.00
2018-06-14T09:27:43.516Z,3.30
2018-06-14T09:30:12.106Z,2.90
2018-06-14T09:32:40.585Z,2.97
2018-06-14T09:35:09.033Z,2.97
2018-06-14T09:37:37.665Z,3.20
2018-06-14T09:40:06.173Z,2.60
2018-06-14T09:42:34.621Z,3.17
2018-06-14T09:45:03.107Z,2.60
2018-06-14T09:47:31.573Z,2.40
2018-06-14T09:50:00.058Z,3.27
2018-06-14T09:52:28.565Z,3.00
2018-06-14T09:54:57.012Z,3.40
2018-06-14T09:57:25.497Z,2.37
2018-06-14T09:59:53.961Z,2.90
2018-06-14T10:02:22.485Z,2.50
2018-06-14T10:04:51.009Z,2.70
2018-06-14T10:07:19.528Z,2.80
2018-06-14T10:09:47.998Z,2.30
2018-06-14T10:12:16.738Z,2.60
2018-06-14T10:14:45.165Z,2.90
2018-06-14T10:17:13.678Z,2.80
2018-06-14T10:19:42.126Z,2.80
2018-06-14T10:22:10.574Z,2.40
2018-06-14T10:24:39.106Z,3.33
2018-06-14T10:27:07.602Z,3.33
2018-06-14T10:29:36.022Z,2.97
2018-06-14T10:32:04.546Z,2.80
2018-06-14T10:34:32.973Z,2.50
2018-06-14T10:37:01.442Z,2.60
2018-06-14T10:39:29.878Z,2.20
2018-06-14T10:41:58.304Z,1.93
2018-06-14T10:44:26.756Z,2.90
2018-06-14T10:46:55.326Z,3.10
2018-06-14T10:49:23.809Z,2.97
2018-06-14T10:51:52.541Z,2.57
2018-06-14T10:54:20.966Z,2.37
2018-06-14T10:56:49.389Z,2.57
2018-06-14T10:59:17.922Z,2.30
2018-06-14T11:01:46.445Z,2.67
2018-06-14T11:04:14.932Z,3.13
2018-06-14T11:06:43.462Z,2.40
2018-06-14T11:09:12.417Z,2.77
2018-06-14T11:11:42.021Z,2.80
2018-06-14T11:14:10.505Z,2.70
2018-06-14T11:16:39.010Z,2.30
2018-06-14T11:19:07.458Z,2.83
2018-06-14T11:21:35.940Z,2.57
2018-06-14T11:24:04.611Z,2.40
2018-06-14T11:26:33.069Z,2.70
2018-06-14T11:29:01.646Z,2.63
2018-06-14T11:31:30.109Z,2.77
2018-06-14T11:33:59.348Z,2.40
2018-06-14T11:36:27.802Z,2.60
2018-06-14T11:38:56.252Z,2.80
2018-06-14T11:41:24.916Z,2.63
2018-06-14T11:43:53.616Z,2.70
2018-06-14T11:46:22.089Z,2.40
2018-06-14T11:48:50.641Z,2.60
2018-06-14T11:51:19.198Z,2.80
2018-06-14T11:53:47.800Z,2.70
2018-06-14T11:56:17.033Z,2.80
2018-06-14T11:58:45.549Z,2.47
2018-06-14T12:01:14.085Z,2.83
2018-06-14T12:03:42.642Z,3.47
2018-06-14T12:06:11.073Z,3.73
2018-06-14T12:08:40.264Z,2.90
2018-06-14T12:11:09.149Z,3.47
2018-06-14T12:13:37.857Z,3.10
2018-06-14T12:16:06.357Z,2.50
2018-06-14T12:18:34.776Z,3.10
2018-06-14T12:21:03.217Z,2.70
2018-06-14T12:23:31.749Z,3.00
2018-06-14T12:26:00.181Z,3.17
2018-06-14T12:28:28.609Z,3.40
2018-06-14T12:30:57.088Z,2.63
2018-06-14T12:33:25.536Z,3.70
2018-06-14T12:35:54.033Z,3.87
2018-06-14T12:38:22.513Z,2.97
2018-06-14T12:40:51.106Z,3.47
2018-06-14T12:43:19.649Z,3.00
2018-06-14T12:45:48.468Z,2.97
2018-06-14T12:48:16.933Z,3.30
2018-06-14T12:50:46.237Z,3.00
2018-06-14T12:53:14.980Z,3.00
2018-06-14T12:55:43.700Z,3.17
2018-06-14T12:58:12.407Z,3.60
2018-06-14T13:00:41.249Z,2.40
2018-06-14T13:03:09.771Z,3.33
2018-06-14T13:05:38.030Z,2.87
2018-06-14T13:08:06.534Z,2.20
2018-06-14T13:10:34.721Z,3.10
2018-06-14T13:13:03.511Z,2.83
2018-06-14T13:15:32.221Z,3.20
2018-06-14T13:18:01.301Z,2.80
2018-06-14T13:20:30.445Z,3.10
2018-06-14T13:22:58.893Z,2.67
2018-06-14T13:25:27.489Z,2.80
2018-06-14T13:27:55.916Z,3.57
2018-06-14T13:30:25.146Z,2.50
2018-06-14T13:32:53.871Z,2.70
2018-06-14T13:35:22.355Z,3.30
2018-06-14T13:37:51.726Z,2.90
2018-06-14T13:40:20.663Z,2.87
2018-06-14T13:42:50.295Z,2.80
2018-06-14T13:45:18.784Z,3.87
2018-06-14T13:47:47.492Z,3.00
2018-06-14T13:50:16.071Z,2.67
2018-06-14T13:52:45.265Z,2.20
2018-06-14T13:55:13.764Z,3.37
2018-06-14T13:57:42.712Z,2.40
2018-06-14T14:00:11.271Z,3.07
2018-06-14T14:02:39.806Z,3.20
2018-06-14T14:05:08.646Z,3.00
2018-06-14T14:07:37.348Z,2.40
2018-06-14T14:10:05.888Z,2.63
2018-06-14T14:12:34.338Z,2.57
2018-06-14T14:15:02.823Z,2.57
2018-06-14T14:17:31.265Z,2.90
2018-06-14T14:19:59.660Z,2.73
2018-06-14T14:22:28.182Z,2.50
2018-06-14T14:24:56.657Z,2.57
2018-06-14T14:27:25.088Z,3.03
2018-06-14T14:29:53.653Z,2.70
2018-06-14T14:32:22.137Z,2.70
2018-06-14T14:34:50.685Z,2.57
2018-06-14T14:37:19.183Z,3.03
2018-06-14T14:39:47.654Z,2.50
2018-06-14T14:42:16.214Z,2.70
2018-06-14T14:44:44.792Z,3.07
2018-06-14T14:47:13.478Z,3.17
2018-06-14T14:49:41.644Z,2.37
2018-06-14T14:52:10.097Z,2.50
2018-06-14T14:54:38.597Z,2.90
2018-06-14T14:57:07.691Z,2.60
2018-06-14T14:59:36.221Z,2.37
2018-06-14T15:02:04.695Z,2.27
2018-06-14T15:04:33.250Z,2.90
2018-06-14T15:07:01.685Z,2.40
2018-06-14T15:09:30.157Z,2.83
2018-06-14T15:11:58.784Z,2.33
2018-06-14T15:14:27.358Z,2.60
2018-06-14T15:16:56.367Z,2.17
2018-06-14T15:19:24.796Z,2.17
2018-06-14T15:21:53.644Z,2.23
2018-06-14T15:24:22.107Z,2.30
2018-06-14T15:26:51.160Z,2.30
2018-06-14T15:29:19.605Z,2.63
2018-06-14T15:31:48.149Z,2.87
2018-06-14T15:34:16.697Z,3.23
2018-06-14T15:36:45.883Z,2.60
2018-06-14T15:39:14.415Z,2.90
2018-06-14T15:41:43.084Z,2.60
2018-06-14T15:44:11.628Z,2.40
2018-06-14T15:46:39.807Z,2.60
2018-06-14T15:49:08.321Z,2.10
2018-06-14T15:51:37.083Z,2.67
2018-06-14T15:54:05.568Z,2.33
2018-06-14T15:56:40.380Z,2.90
2018-06-14T15:59:10.101Z,2.80
2018-06-14T16:01:38.753Z,2.83
2018-06-14T16:04:07.649Z,2.70
2018-06-14T16:06:36.130Z,2.50
2018-06-14T16:09:07.729Z,2.60
2018-06-14T16:11:36.413Z,2.40
2018-06-14T16:14:04.813Z,2.60
2018-06-14T16:16:33.282Z,2.23
2018-06-14T16:19:01.797Z,2.03
2018-06-14T16:21:30.285Z,2.20
2018-06-14T16:23:58.960Z,2.13
2018-06-14T16:26:27.588Z,1.97
2018-06-14T16:29:00.977Z,2.53
2018-06-14T16:31:29.669Z,2.20
2018-06-14T16:34:08.705Z,2.20
2018-06-14T16:36:37.172Z,1.97
2018-06-14T16:39:08.214Z,2.10
2018-06-14T16:41:37.409Z,1.80
2018-06-14T16:44:05.920Z,2.13
2018-06-14T16:46:34.402Z,2.13
2018-06-14T16:49:02.875Z,2.60
2018-06-14T16:51:31.410Z,1.70
2018-06-14T16:54:00.093Z,1.90
2018-06-14T16:56:28.588Z,1.90
2018-06-14T16:58:57.017Z,2.40
2018-06-14T17:01:25.626Z,2.20
2018-06-14T17:03:54.020Z,2.03
2018-06-14T17:06:22.680Z,2.20
2018-06-14T17:08:51.166Z,2.27
2018-06-14T17:11:19.636Z,2.57
2018-06-14T17:13:48.181Z,2.30
2018-06-14T17:16:16.597Z,2.40
2018-06-14T17:18:44.780Z,1.90
2018-06-14T17:21:13.265Z,2.10
2018-06-14T17:23:41.748Z,2.03
2018-06-14T17:26:10.146Z,2.50
2018-06-14T17:28:38.728Z,1.83
2018-06-14T17:31:07.345Z,2.03
2018-06-14T17:33:36.037Z,2.30
2018-06-14T17:36:04.660Z,2.40
2018-06-14T17:38:33.119Z,2.00
2018-06-14T17:41:01.694Z,2.17
2018-06-14T17:43:30.106Z,2.20
2018-06-14T17:45:58.593Z,1.73
2018-06-14T17:48:27.014Z,2.30
2018-06-14T17:50:55.493Z,1.80
2018-06-14T17:53:24.021Z,2.70
2018-06-14T17:55:52.624Z,2.07
2018-06-14T17:58:21.195Z,2.27
2018-06-14T18:00:49.985Z,2.23
2018-06-14T18:03:18.482Z,2.13
2018-06-14T18:05:46.982Z,2.00
2018-06-14T18:08:15.407Z,2.33
2018-06-14T18:10:43.878Z,2.10
2018-06-14T18:13:12.433Z,2.33
2018-06-14T18:15:40.978Z,2.20
2018-06-14T18:18:09.554Z,2.67
2018-06-14T18:20:38.020Z,2.60
2018-06-14T18:23:06.511Z,2.47
2018-06-14T18:25:34.989Z,2.67
2018-06-14T18:28:03.454Z,2.50
2018-06-14T18:30:32.042Z,2.60
2018-06-14T18:33:00.496Z,2.60
2018-06-14T18:35:28.970Z,2.20
2018-06-14T18:37:57.488Z,2.10
2018-06-14T18:40:26.058Z,2.30
2018-06-14T18:42:54.520Z,2.40
2018-06-14T18:45:23.646Z,2.30
2018-06-14T18:47:52.096Z,2.30
2018-06-14T18:50:21.413Z,2.00
2018-06-14T18:52:49.880Z,2.43
2018-06-14T18:55:18.426Z,1.97
2018-06-14T18:57:46.995Z,2.50
2018-06-14T19:00:15.499Z,3.80
2018-06-14T19:02:45.262Z,4.17
2018-06-14T19:05:13.701Z,3.03
2018-06-14T19:07:42.311Z,2.40
2018-06-14T19:10:10.948Z,2.30
2018-06-14T19:12:39.401Z,2.70
2018-06-14T19:15:08.005Z,3.77
2018-06-14T19:17:36.633Z,3.07
2018-06-14T19:20:05.006Z,3.40
2018-06-14T19:22:34.576Z,2.50
2018-06-14T19:25:03.049Z,3.03
2018-06-14T19:27:31.516Z,2.57
2018-06-14T19:29:59.990Z,2.60
2018-06-14T19:32:28.437Z,2.50
2018-06-14T19:34:56.884Z,3.00
2018-06-14T19:37:25.393Z,3.10
2018-06-14T19:39:53.910Z,2.73
2018-06-14T19:42:22.721Z,3.00
2018-06-14T19:44:51.250Z,2.67
2018-06-14T19:47:20.271Z,3.00
2018-06-14T19:49:48.710Z,3.40
2018-06-14T19:52:17.267Z,4.57
2018-06-14T19:54:45.771Z,5.00
2018-06-14T19:57:14.244Z,3.97
2018-06-14T19:59:42.741Z,4.50
2018-06-14T20:02:11.255Z,3.60
2018-06-14T20:04:39.885Z,3.00
2018-06-14T20:07:08.620Z,3.27
2018-06-14T20:09:37.025Z,2.70
2018-06-14T20:12:05.636Z,3.07
2018-06-14T20:14:34.228Z,3.27
2018-06-14T20:17:02.924Z,3.20
2018-06-14T20:19:31.537Z,2.80
2018-06-14T20:22:01.386Z,3.33
2018-06-14T20:24:29.844Z,3.00
2018-06-14T20:26:59.062Z,2.77
2018-06-14T20:29:27.769Z,2.90
2018-06-14T20:31:56.225Z,3.20
2018-06-14T20:34:24.769Z,2.60
2018-06-14T20:36:53.437Z,3.13
2018-06-14T20:39:21.645Z,2.57
2018-06-14T20:41:50.159Z,3.10
2018-06-14T20:44:18.281Z,2.83
2018-06-14T20:46:46.756Z,3.70
2018-06-14T20:49:14.864Z,3.20
2018-06-14T20:51:43.387Z,2.60
2018-06-14T20:54:11.841Z,3.00
2018-06-14T20:56:40.358Z,3.00
2018-06-14T20:59:08.801Z,2.70
2018-06-14T21:01:37.320Z,2.73
2018-06-14T21:04:05.928Z,2.50
2018-06-14T21:06:34.433Z,2.60
2018-06-14T21:09:02.988Z,3.73
2018-06-14T21:11:31.464Z,3.10
2018-06-14T21:14:00.010Z,2.83
2018-06-14T21:16:28.507Z,3.33
2018-06-14T21:18:57.198Z,3.20
2018-06-14T21:21:25.660Z,3.40
2018-06-14T21:23:54.093Z,2.90
2018-06-14T21:26:23.558Z,3.17
2018-06-14T21:28:52.013Z,2.43
2018-06-14T21:31:20.485Z,2.97
2018-06-14T21:33:48.906Z,2.97
2018-06-14T21:36:17.432Z,2.93
2018-06-14T21:38:45.924Z,3.20
2018-06-14T21:41:14.453Z,3.00
2018-06-14T21:43:43.556Z,3.10
2018-06-14T21:46:12.066Z,3.10
2018-06-14T21:48:40.248Z,2.80
2018-06-14T21:51:08.836Z,3.00
2018-06-14T21:53:37.311Z,2.87
2018-06-14T21:56:05.893Z,3.07
2018-06-14T21:58:34.364Z,3.43
2018-06-14T22:01:02.896Z,3.13
2018-06-14T22:03:36.677Z,2.87
2018-06-14T22:06:05.146Z,3.00
2018-06-14T22:08:33.564Z,3.40
2018-06-14T22:11:01.985Z,3.10
2018-06-14T22:13:30.455Z,3.03
2018-06-14T22:15:58.992Z,3.10
2018-06-14T22:18:27.512Z,3.07
2018-06-14T22:20:56.039Z,3.23
2018-06-14T22:23:24.210Z,3.17
2018-06-14T22:25:52.748Z,3.10
2018-06-14T22:28:21.206Z,3.23
2018-06-14T22:30:49.656Z,2.87
2018-06-14T22:33:29.473Z,3.53
2018-06-14T22:35:57.921Z,3.00
2018-06-14T22:38:26.505Z,3.83
2018-06-14T22:40:54.939Z,3.20
2018-06-14T22:43:23.480Z,3.50
2018-06-14T22:45:51.897Z,3.67
2018-06-14T22:48:20.361Z,4.07
2018-06-14T22:51:00.169Z,3.80
2018-06-14T22:53:28.649Z,4.00
2018-06-14T22:55:57.969Z,3.70
2018-06-14T22:58:26.402Z,3.60
2018-06-14T23:01:36.477Z,3.70
2018-06-14T23:04:05.027Z,3.73
2018-06-14T23:06:33.477Z,3.60
2018-06-14T23:09:11.717Z,4.47
2018-06-14T23:11:40.251Z,3.37
2018-06-14T23:14:08.653Z,4.00
2018-06-14T23:16:37.087Z,4.20
2018-06-14T23:19:05.541Z,3.63
2018-06-14T23:21:34.066Z,4.07
2018-06-14T23:24:02.666Z,3.70
2018-06-14T23:26:31.302Z,4.70
2018-06-14T23:28:59.808Z,3.60
2018-06-14T23:31:28.261Z,4.00
2018-06-14T23:33:56.767Z,4.20
2018-06-14T23:36:25.217Z,3.90
2018-06-14T23:38:53.688Z,3.70
2018-06-14T23:41:22.125Z,4.03
2018-06-14T23:43:50.653Z,3.60
2018-06-14T23:46:19.162Z,4.33
2018-06-14T23:48:47.618Z,4.03
2018-06-14T23:51:16.256Z,3.73
2018-06-14T23:53:44.705Z,3.97
2018-06-14T23:56:13.157Z,4.17
2018-06-14T23:58:41.585Z,3.80
